sensor_id;sensor_type;location;lat;lon;timestamp;P1;durP1;ratioP1;P2;durP2;ratioP2
16642;SDS011;8435;52.184;5.406;2023-08-24T00:00:23;4.47;;;3.40;;
16642;SDS011;8435;52.184;5.406;2023-08-24T00:02:51;4.50;;;3.40;;
16642;SDS011;8435;52.184;5.406;2023-08-24T00:05:20;4.10;;;3.70;;
16642;SDS011;8435;52.184;5.406;2023-08-24T00:07:47;4.07;;;3.65;;
16642;SDS011;8435;52.184;5.406;2023-08-24T00:10:18;4.15;;;3.72;;
16642;SDS011;8435;52.184;5.406;2023-08-24T00:12:49;5.22;;;3.85;;
16642;SDS011;8435;52.184;5.406;2023-08-24T00:15:16;3.92;;;3.30;;
16642;SDS011;8435;52.184;5.406;2023-08-24T00:17:43;5.90;;;3.88;;
16642;SDS011;8435;52.184;5.406;2023-08-24T00:20:11;3.58;;;3.28;;
16642;SDS011;8435;52.184;5.406;2023-08-24T00:22:45;3.90;;;3.60;;
16642;SDS011;8435;52.184;5.406;2023-08-24T00:25:15;4.45;;;4.05;;
16642;SDS011;8435;52.184;5.406;2023-08-24T00:27:43;4.43;;;4.13;;
16642;SDS011;8435;52.184;5.406;2023-08-24T00:30:12;4.35;;;3.95;;
16642;SDS011;8435;52.184;5.406;2023-08-24T00:32:39;5.70;;;4.10;;
16642;SDS011;8435;52.184;5.406;2023-08-24T00:35:08;3.63;;;3.33;;
16642;SDS011;8435;52.184;5.406;2023-08-24T00:37:37;5.50;;;3.83;;
16642;SDS011;8435;52.184;5.406;2023-08-24T00:40:05;4.40;;;4.00;;
16642;SDS011;8435;52.184;5.406;2023-08-24T00:42:36;4.40;;;3.75;;
16642;SDS011;8435;52.184;5.406;2023-08-24T00:45:04;6.60;;;4.25;;
16642;SDS011;8435;52.184;5.406;2023-08-24T00:47:32;4.90;;;4.50;;
16642;SDS011;8435;52.184;5.406;2023-08-24T00:50:00;5.78;;;4.13;;
16642;SDS011;8435;52.184;5.406;2023-08-24T00:52:29;5.03;;;3.65;;
16642;SDS011;8435;52.184;5.406;2023-08-24T00:54:59;3.97;;;3.65;;
16642;SDS011;8435;52.184;5.406;2023-08-24T00:57:29;4.40;;;3.75;;
16642;SDS011;8435;52.184;5.406;2023-08-24T00:59:57;4.00;;;3.63;;
16642;SDS011;8435;52.184;5.406;2023-08-24T01:02:28;4.60;;;3.80;;
16642;SDS011;8435;52.184;5.406;2023-08-24T01:04:55;3.97;;;3.58;;
16642;SDS011;8435;52.184;5.406;2023-08-24T01:07:22;5.50;;;3.90;;
16642;SDS011;8435;52.184;5.406;2023-08-24T01:09:49;3.88;;;3.50;;
16642;SDS011;8435;52.184;5.406;2023-08-24T01:12:19;4.70;;;4.25;;
16642;SDS011;8435;52.184;5.406;2023-08-24T01:14:55;3.80;;;3.50;;
16642;SDS011;8435;52.184;5.406;2023-08-24T01:17:28;4.05;;;3.65;;
16642;SDS011;8435;52.184;5.406;2023-08-24T01:19:59;3.92;;;3.63;;
16642;SDS011;8435;52.184;5.406;2023-08-24T01:22:33;3.75;;;3.45;;
16642;SDS011;8435;52.184;5.406;2023-08-24T01:25:15;3.53;;;3.30;;
16642;SDS011;8435;52.184;5.406;2023-08-24T01:27:46;3.85;;;3.55;;
16642;SDS011;8435;52.184;5.406;2023-08-24T01:30:15;5.63;;;5.07;;
16642;SDS011;8435;52.184;5.406;2023-08-24T01:32:44;3.70;;;3.35;;
16642;SDS011;8435;52.184;5.406;2023-08-24T01:35:12;5.57;;;4.20;;
16642;SDS011;8435;52.184;5.406;2023-08-24T01:37:39;5.38;;;4.60;;
16642;SDS011;8435;52.184;5.406;2023-08-24T01:40:09;4.97;;;4.32;;
16642;SDS011;8435;52.184;5.406;2023-08-24T01:42:43;5.05;;;3.50;;
16642;SDS011;8435;52.184;5.406;2023-08-24T01:45:16;4.63;;;4.25;;
16642;SDS011;8435;52.184;5.406;2023-08-24T01:47:45;5.03;;;4.57;;
16642;SDS011;8435;52.184;5.406;2023-08-24T01:50:13;4.85;;;4.10;;
16642;SDS011;8435;52.184;5.406;2023-08-24T01:52:40;4.90;;;4.28;;
16642;SDS011;8435;52.184;5.406;2023-08-24T01:55:08;4.72;;;4.20;;
16642;SDS011;8435;52.184;5.406;2023-08-24T01:57:35;4.28;;;3.85;;
16642;SDS011;8435;52.184;5.406;2023-08-24T02:00:04;5.50;;;4.38;;
16642;SDS011;8435;52.184;5.406;2023-08-24T02:02:34;4.85;;;4.25;;
16642;SDS011;8435;52.184;5.406;2023-08-24T02:05:01;5.35;;;4.25;;
16642;SDS011;8435;52.184;5.406;2023-08-24T02:07:28;4.35;;;4.05;;
16642;SDS011;8435;52.184;5.406;2023-08-24T02:09:55;4.85;;;4.35;;
16642;SDS011;8435;52.184;5.406;2023-08-24T02:12:22;5.30;;;4.88;;
16642;SDS011;8435;52.184;5.406;2023-08-24T02:14:49;4.65;;;4.22;;
16642;SDS011;8435;52.184;5.406;2023-08-24T02:17:17;4.68;;;4.28;;
16642;SDS011;8435;52.184;5.406;2023-08-24T02:19:44;4.55;;;4.20;;
16642;SDS011;8435;52.184;5.406;2023-08-24T02:22:10;5.13;;;4.32;;
16642;SDS011;8435;52.184;5.406;2023-08-24T02:24:37;4.90;;;4.50;;
16642;SDS011;8435;52.184;5.406;2023-08-24T02:27:04;6.03;;;4.50;;
16642;SDS011;8435;52.184;5.406;2023-08-24T02:29:31;4.75;;;4.35;;
16642;SDS011;8435;52.184;5.406;2023-08-24T02:31:58;4.88;;;4.45;;
16642;SDS011;8435;52.184;5.406;2023-08-24T02:34:27;5.15;;;4.70;;
16642;SDS011;8435;52.184;5.406;2023-08-24T02:36:54;4.82;;;4.43;;
16642;SDS011;8435;52.184;5.406;2023-08-24T02:39:21;5.15;;;4.75;;
16642;SDS011;8435;52.184;5.406;2023-08-24T02:41:49;5.60;;;4.97;;
16642;SDS011;8435;52.184;5.406;2023-08-24T02:44:16;5.43;;;4.93;;
16642;SDS011;8435;52.184;5.406;2023-08-24T02:46:44;5.03;;;4.63;;
16642;SDS011;8435;52.184;5.406;2023-08-24T02:49:11;5.22;;;4.72;;
16642;SDS011;8435;52.184;5.406;2023-08-24T02:51:39;5.72;;;4.72;;
16642;SDS011;8435;52.184;5.406;2023-08-24T02:54:06;6.10;;;5.50;;
16642;SDS011;8435;52.184;5.406;2023-08-24T02:56:32;5.97;;;4.88;;
16642;SDS011;8435;52.184;5.406;2023-08-24T02:58:59;5.47;;;4.97;;
16642;SDS011;8435;52.184;5.406;2023-08-24T03:01:26;5.60;;;5.10;;
16642;SDS011;8435;52.184;5.406;2023-08-24T03:03:56;5.88;;;5.38;;
16642;SDS011;8435;52.184;5.406;2023-08-24T03:06:23;5.72;;;5.22;;
16642;SDS011;8435;52.184;5.406;2023-08-24T03:08:53;5.45;;;4.97;;
16642;SDS011;8435;52.184;5.406;2023-08-24T03:11:20;4.95;;;4.55;;
16642;SDS011;8435;52.184;5.406;2023-08-24T03:13:50;5.55;;;5.05;;
16642;SDS011;8435;52.184;5.406;2023-08-24T03:16:16;6.38;;;5.70;;
16642;SDS011;8435;52.184;5.406;2023-08-24T03:18:44;8.43;;;5.10;;
16642;SDS011;8435;52.184;5.406;2023-08-24T03:21:11;6.05;;;5.55;;
16642;SDS011;8435;52.184;5.406;2023-08-24T03:23:39;6.07;;;5.57;;
16642;SDS011;8435;52.184;5.406;2023-08-24T03:26:08;5.53;;;4.88;;
16642;SDS011;8435;52.184;5.406;2023-08-24T03:28:35;6.13;;;5.47;;
16642;SDS011;8435;52.184;5.406;2023-08-24T03:31:02;5.95;;;5.32;;
16642;SDS011;8435;52.184;5.406;2023-08-24T03:33:28;6.10;;;5.60;;
16642;SDS011;8435;52.184;5.406;2023-08-24T03:35:55;6.22;;;5.63;;
16642;SDS011;8435;52.184;5.406;2023-08-24T03:38:22;5.93;;;5.30;;
16642;SDS011;8435;52.184;5.406;2023-08-24T03:40:51;5.82;;;5.32;;
16642;SDS011;8435;52.184;5.406;2023-08-24T03:43:19;6.47;;;5.88;;
16642;SDS011;8435;52.184;5.406;2023-08-24T03:45:46;6.35;;;5.72;;
16642;SDS011;8435;52.184;5.406;2023-08-24T03:48:13;6.50;;;5.65;;
16642;SDS011;8435;52.184;5.406;2023-08-24T03:50:40;6.03;;;5.53;;
16642;SDS011;8435;52.184;5.406;2023-08-24T03:53:07;6.07;;;5.50;;
16642;SDS011;8435;52.184;5.406;2023-08-24T03:55:33;7.57;;;6.28;;
16642;SDS011;8435;52.184;5.406;2023-08-24T03:58:00;6.63;;;5.90;;
16642;SDS011;8435;52.184;5.406;2023-08-24T04:00:32;6.75;;;6.07;;
16642;SDS011;8435;52.184;5.406;2023-08-24T04:02:59;8.30;;;6.57;;
16642;SDS011;8435;52.184;5.406;2023-08-24T04:05:26;6.97;;;6.28;;
16642;SDS011;8435;52.184;5.406;2023-08-24T04:07:53;7.13;;;6.43;;
16642;SDS011;8435;52.184;5.406;2023-08-24T04:10:19;6.72;;;5.95;;
16642;SDS011;8435;52.184;5.406;2023-08-24T04:12:46;6.53;;;5.78;;
16642;SDS011;8435;52.184;5.406;2023-08-24T04:15:13;6.00;;;5.50;;
16642;SDS011;8435;52.184;5.406;2023-08-24T04:17:41;6.75;;;6.07;;
16642;SDS011;8435;52.184;5.406;2023-08-24T04:20:10;7.15;;;6.25;;
16642;SDS011;8435;52.184;5.406;2023-08-24T04:22:38;6.50;;;5.90;;
16642;SDS011;8435;52.184;5.406;2023-08-24T04:25:07;6.72;;;6.22;;
16642;SDS011;8435;52.184;5.406;2023-08-24T04:27:34;7.10;;;6.45;;
16642;SDS011;8435;52.184;5.406;2023-08-24T04:30:02;6.35;;;5.65;;
16642;SDS011;8435;52.184;5.406;2023-08-24T04:32:31;7.25;;;6.55;;
16642;SDS011;8435;52.184;5.406;2023-08-24T04:34:59;7.40;;;6.70;;
16642;SDS011;8435;52.184;5.406;2023-08-24T04:37:26;7.18;;;6.47;;
16642;SDS011;8435;52.184;5.406;2023-08-24T04:39:55;7.28;;;6.68;;
16642;SDS011;8435;52.184;5.406;2023-08-24T04:42:22;6.65;;;6.07;;
16642;SDS011;8435;52.184;5.406;2023-08-24T04:44:50;7.78;;;6.28;;
16642;SDS011;8435;52.184;5.406;2023-08-24T04:47:17;7.15;;;6.32;;
16642;SDS011;8435;52.184;5.406;2023-08-24T04:49:44;7.88;;;6.68;;
16642;SDS011;8435;52.184;5.406;2023-08-24T04:52:12;8.67;;;6.83;;
16642;SDS011;8435;52.184;5.406;2023-08-24T04:54:39;6.80;;;6.20;;
16642;SDS011;8435;52.184;5.406;2023-08-24T04:57:06;7.25;;;6.57;;
16642;SDS011;8435;52.184;5.406;2023-08-24T04:59:32;7.13;;;6.40;;
16642;SDS011;8435;52.184;5.406;2023-08-24T05:01:59;7.25;;;6.55;;
16642;SDS011;8435;52.184;5.406;2023-08-24T05:04:29;7.03;;;6.43;;
16642;SDS011;8435;52.184;5.406;2023-08-24T05:06:59;7.70;;;6.78;;
16642;SDS011;8435;52.184;5.406;2023-08-24T05:09:27;7.25;;;6.55;;
16642;SDS011;8435;52.184;5.406;2023-08-24T05:11:56;6.88;;;6.30;;
16642;SDS011;8435;52.184;5.406;2023-08-24T05:14:26;6.93;;;6.32;;
16642;SDS011;8435;52.184;5.406;2023-08-24T05:16:53;7.40;;;6.70;;
16642;SDS011;8435;52.184;5.406;2023-08-24T05:19:23;7.22;;;6.63;;
16642;SDS011;8435;52.184;5.406;2023-08-24T05:21:49;7.25;;;6.55;;
16642;SDS011;8435;52.184;5.406;2023-08-24T05:24:16;8.65;;;7.55;;
16642;SDS011;8435;52.184;5.406;2023-08-24T05:26:44;6.63;;;5.97;;
16642;SDS011;8435;52.184;5.406;2023-08-24T05:29:14;6.15;;;5.65;;
16642;SDS011;8435;52.184;5.406;2023-08-24T05:31:41;6.43;;;5.70;;
16642;SDS011;8435;52.184;5.406;2023-08-24T05:34:07;7.00;;;6.32;;
16642;SDS011;8435;52.184;5.406;2023-08-24T05:36:34;6.65;;;6.00;;
16642;SDS011;8435;52.184;5.406;2023-08-24T05:39:01;6.38;;;5.82;;
16642;SDS011;8435;52.184;5.406;2023-08-24T05:41:28;6.38;;;5.78;;
16642;SDS011;8435;52.184;5.406;2023-08-24T05:43:59;7.13;;;6.07;;
16642;SDS011;8435;52.184;5.406;2023-08-24T05:46:34;6.35;;;5.75;;
16642;SDS011;8435;52.184;5.406;2023-08-24T05:49:01;6.35;;;5.80;;
16642;SDS011;8435;52.184;5.406;2023-08-24T05:51:28;6.33;;;5.73;;
16642;SDS011;8435;52.184;5.406;2023-08-24T05:53:54;8.70;;;7.95;;
16642;SDS011;8435;52.184;5.406;2023-08-24T05:56:24;7.75;;;7.03;;
16642;SDS011;8435;52.184;5.406;2023-08-24T05:58:51;6.97;;;6.28;;
16642;SDS011;8435;52.184;5.406;2023-08-24T06:01:19;7.18;;;6.47;;
16642;SDS011;8435;52.184;5.406;2023-08-24T06:03:46;6.72;;;6.18;;
16642;SDS011;8435;52.184;5.406;2023-08-24T06:06:13;7.05;;;6.00;;
16642;SDS011;8435;52.184;5.406;2023-08-24T06:08:40;6.15;;;5.57;;
16642;SDS011;8435;52.184;5.406;2023-08-24T06:11:07;6.57;;;6.00;;
16642;SDS011;8435;52.184;5.406;2023-08-24T06:13:34;6.32;;;5.82;;
16642;SDS011;8435;52.184;5.406;2023-08-24T06:16:01;7.45;;;6.75;;
16642;SDS011;8435;52.184;5.406;2023-08-24T06:18:31;6.90;;;6.07;;
16642;SDS011;8435;52.184;5.406;2023-08-24T06:21:01;6.35;;;5.78;;
16642;SDS011;8435;52.184;5.406;2023-08-24T06:23:28;8.02;;;7.20;;
16642;SDS011;8435;52.184;5.406;2023-08-24T06:25:54;7.43;;;6.72;;
16642;SDS011;8435;52.184;5.406;2023-08-24T06:28:21;6.35;;;5.85;;
16642;SDS011;8435;52.184;5.406;2023-08-24T06:30:48;6.90;;;6.20;;
16642;SDS011;8435;52.184;5.406;2023-08-24T06:33:16;7.40;;;6.50;;
16642;SDS011;8435;52.184;5.406;2023-08-24T06:35:45;9.27;;;6.10;;
16642;SDS011;8435;52.184;5.406;2023-08-24T06:38:16;8.80;;;7.90;;
16642;SDS011;8435;52.184;5.406;2023-08-24T06:40:42;6.63;;;6.03;;
16642;SDS011;8435;52.184;5.406;2023-08-24T06:43:09;7.15;;;6.55;;
16642;SDS011;8435;52.184;5.406;2023-08-24T06:45:36;8.77;;;7.55;;
16642;SDS011;8435;52.184;5.406;2023-08-24T06:48:04;7.20;;;6.15;;
16642;SDS011;8435;52.184;5.406;2023-08-24T06:50:32;8.13;;;7.32;;
16642;SDS011;8435;52.184;5.406;2023-08-24T06:53:00;8.20;;;6.97;;
16642;SDS011;8435;52.184;5.406;2023-08-24T06:55:28;7.95;;;7.28;;
16642;SDS011;8435;52.184;5.406;2023-08-24T06:57:55;8.35;;;7.55;;
16642;SDS011;8435;52.184;5.406;2023-08-24T07:00:22;8.15;;;7.15;;
16642;SDS011;8435;52.184;5.406;2023-08-24T07:02:50;8.60;;;7.70;;
16642;SDS011;8435;52.184;5.406;2023-08-24T07:05:17;7.97;;;7.18;;
16642;SDS011;8435;52.184;5.406;2023-08-24T07:07:44;8.20;;;7.40;;
16642;SDS011;8435;52.184;5.406;2023-08-24T07:10:12;8.10;;;7.30;;
16642;SDS011;8435;52.184;5.406;2023-08-24T07:12:39;10.13;;;8.55;;
16642;SDS011;8435;52.184;5.406;2023-08-24T07:15:07;9.27;;;8.48;;
16642;SDS011;8435;52.184;5.406;2023-08-24T07:17:35;8.57;;;7.88;;
16642;SDS011;8435;52.184;5.406;2023-08-24T07:20:03;9.70;;;7.53;;
16642;SDS011;8435;52.184;5.406;2023-08-24T07:22:31;8.73;;;7.80;;
16642;SDS011;8435;52.184;5.406;2023-08-24T07:24:58;9.27;;;8.35;;
16642;SDS011;8435;52.184;5.406;2023-08-24T07:27:27;8.38;;;7.22;;
16642;SDS011;8435;52.184;5.406;2023-08-24T07:29:54;8.95;;;8.18;;
16642;SDS011;8435;52.184;5.406;2023-08-24T07:32:21;8.93;;;8.13;;
16642;SDS011;8435;52.184;5.406;2023-08-24T07:34:55;9.02;;;8.27;;
16642;SDS011;8435;52.184;5.406;2023-08-24T07:37:24;7.93;;;7.15;;
16642;SDS011;8435;52.184;5.406;2023-08-24T07:39:51;8.15;;;7.38;;
16642;SDS011;8435;52.184;5.406;2023-08-24T07:42:19;8.18;;;7.38;;
16642;SDS011;8435;52.184;5.406;2023-08-24T07:44:49;8.35;;;7.63;;
16642;SDS011;8435;52.184;5.406;2023-08-24T07:47:16;8.73;;;8.02;;
16642;SDS011;8435;52.184;5.406;2023-08-24T07:49:43;9.07;;;8.27;;
16642;SDS011;8435;52.184;5.406;2023-08-24T07:52:10;7.85;;;7.15;;
16642;SDS011;8435;52.184;5.406;2023-08-24T07:54:37;10.70;;;8.15;;
16642;SDS011;8435;52.184;5.406;2023-08-24T07:57:05;7.95;;;7.30;;
16642;SDS011;8435;52.184;5.406;2023-08-24T07:59:32;8.00;;;7.30;;
16642;SDS011;8435;52.184;5.406;2023-08-24T08:02:00;7.55;;;6.95;;
16642;SDS011;8435;52.184;5.406;2023-08-24T08:04:26;9.13;;;8.05;;
16642;SDS011;8435;52.184;5.406;2023-08-24T08:06:53;8.80;;;7.38;;
16642;SDS011;8435;52.184;5.406;2023-08-24T08:09:20;7.97;;;7.28;;
16642;SDS011;8435;52.184;5.406;2023-08-24T08:11:47;9.07;;;7.88;;
16642;SDS011;8435;52.184;5.406;2023-08-24T08:14:14;7.55;;;6.97;;
16642;SDS011;8435;52.184;5.406;2023-08-24T08:16:41;7.53;;;6.82;;
16642;SDS011;8435;52.184;5.406;2023-08-24T08:19:09;6.90;;;6.40;;
16642;SDS011;8435;52.184;5.406;2023-08-24T08:21:36;7.75;;;7.10;;
16642;SDS011;8435;52.184;5.406;2023-08-24T08:24:13;7.03;;;6.38;;
16642;SDS011;8435;52.184;5.406;2023-08-24T08:26:40;7.63;;;6.72;;
16642;SDS011;8435;52.184;5.406;2023-08-24T08:29:07;7.13;;;6.57;;
16642;SDS011;8435;52.184;5.406;2023-08-24T08:31:34;7.28;;;6.63;;
16642;SDS011;8435;52.184;5.406;2023-08-24T08:34:01;8.00;;;7.30;;
16642;SDS011;8435;52.184;5.406;2023-08-24T08:36:30;7.32;;;6.75;;
16642;SDS011;8435;52.184;5.406;2023-08-24T08:38:58;7.78;;;6.97;;
16642;SDS011;8435;52.184;5.406;2023-08-24T08:41:25;7.60;;;7.00;;
16642;SDS011;8435;52.184;5.406;2023-08-24T08:43:56;7.85;;;7.15;;
16642;SDS011;8435;52.184;5.406;2023-08-24T08:46:23;8.68;;;7.88;;
16642;SDS011;8435;52.184;5.406;2023-08-24T08:48:51;7.68;;;7.07;;
16642;SDS011;8435;52.184;5.406;2023-08-24T08:51:22;8.40;;;7.80;;
16642;SDS011;8435;52.184;5.406;2023-08-24T08:53:51;7.85;;;7.28;;
16642;SDS011;8435;52.184;5.406;2023-08-24T08:56:18;8.38;;;7.72;;
16642;SDS011;8435;52.184;5.406;2023-08-24T08:58:45;8.32;;;7.68;;
16642;SDS011;8435;52.184;5.406;2023-08-24T09:01:14;7.47;;;6.88;;
16642;SDS011;8435;52.184;5.406;2023-08-24T09:03:42;8.13;;;7.43;;
16642;SDS011;8435;52.184;5.406;2023-08-24T09:06:11;7.65;;;7.00;;
16642;SDS011;8435;52.184;5.406;2023-08-24T09:08:40;7.95;;;7.30;;
16642;SDS011;8435;52.184;5.406;2023-08-24T09:11:09;7.32;;;6.72;;
16642;SDS011;8435;52.184;5.406;2023-08-24T09:13:36;7.97;;;7.18;;
16642;SDS011;8435;52.184;5.406;2023-08-24T09:16:03;8.07;;;6.70;;
16642;SDS011;8435;52.184;5.406;2023-08-24T09:18:41;7.70;;;6.90;;
16642;SDS011;8435;52.184;5.406;2023-08-24T09:21:10;7.40;;;6.72;;
16642;SDS011;8435;52.184;5.406;2023-08-24T09:23:38;7.80;;;7.00;;
16642;SDS011;8435;52.184;5.406;2023-08-24T09:26:10;7.38;;;6.68;;
16642;SDS011;8435;52.184;5.406;2023-08-24T09:28:37;7.22;;;6.57;;
16642;SDS011;8435;52.184;5.406;2023-08-24T09:31:05;7.00;;;6.35;;
16642;SDS011;8435;52.184;5.406;2023-08-24T09:33:33;7.55;;;6.63;;
16642;SDS011;8435;52.184;5.406;2023-08-24T09:36:02;8.05;;;7.35;;
16642;SDS011;8435;52.184;5.406;2023-08-24T09:38:34;7.47;;;6.78;;
16642;SDS011;8435;52.184;5.406;2023-08-24T09:41:01;7.07;;;6.47;;
16642;SDS011;8435;52.184;5.406;2023-08-24T09:43:30;7.50;;;6.82;;
16642;SDS011;8435;52.184;5.406;2023-08-24T09:45:57;7.97;;;7.18;;
16642;SDS011;8435;52.184;5.406;2023-08-24T09:48:31;7.03;;;6.43;;
16642;SDS011;8435;52.184;5.406;2023-08-24T09:50:58;7.20;;;6.60;;
16642;SDS011;8435;52.184;5.406;2023-08-24T09:53:31;8.25;;;7.50;;
16642;SDS011;8435;52.184;5.406;2023-08-24T09:56:03;6.78;;;6.25;;
16642;SDS011;8435;52.184;5.406;2023-08-24T09:58:33;7.57;;;6.60;;
16642;SDS011;8435;52.184;5.406;2023-08-24T10:01:01;7.68;;;6.97;;
16642;SDS011;8435;52.184;5.406;2023-08-24T10:03:30;6.97;;;6.43;;
16642;SDS011;8435;52.184;5.406;2023-08-24T10:05:58;6.80;;;6.20;;
16642;SDS011;8435;52.184;5.406;2023-08-24T10:08:26;9.10;;;6.72;;
16642;SDS011;8435;52.184;5.406;2023-08-24T10:10:55;6.97;;;6.38;;
16642;SDS011;8435;52.184;5.406;2023-08-24T10:13:27;6.93;;;6.22;;
16642;SDS011;8435;52.184;5.406;2023-08-24T10:16:02;6.45;;;5.85;;
16642;SDS011;8435;52.184;5.406;2023-08-24T10:18:31;6.53;;;5.93;;
16642;SDS011;8435;52.184;5.406;2023-08-24T10:20:58;6.97;;;6.30;;
16642;SDS011;8435;52.184;5.406;2023-08-24T10:23:27;8.38;;;6.97;;
16642;SDS011;8435;52.184;5.406;2023-08-24T10:25:55;7.22;;;6.63;;
16642;SDS011;8435;52.184;5.406;2023-08-24T10:28:23;7.20;;;6.50;;
16642;SDS011;8435;52.184;5.406;2023-08-24T10:30:51;22.83;;;18.05;;
16642;SDS011;8435;52.184;5.406;2023-08-24T10:33:21;11.68;;;10.45;;
16642;SDS011;8435;52.184;5.406;2023-08-24T10:35:49;10.38;;;9.38;;
16642;SDS011;8435;52.184;5.406;2023-08-24T10:38:22;10.00;;;8.27;;
16642;SDS011;8435;52.184;5.406;2023-08-24T10:40:51;7.60;;;6.88;;
16642;SDS011;8435;52.184;5.406;2023-08-24T10:43:22;8.27;;;7.40;;
16642;SDS011;8435;52.184;5.406;2023-08-24T10:45:55;7.78;;;6.95;;
16642;SDS011;8435;52.184;5.406;2023-08-24T10:48:25;8.18;;;7.38;;
16642;SDS011;8435;52.184;5.406;2023-08-24T10:53:47;7.85;;;7.05;;
16642;SDS011;8435;52.184;5.406;2023-08-24T10:56:18;7.07;;;6.47;;
16642;SDS011;8435;52.184;5.406;2023-08-24T10:58:46;8.88;;;7.80;;
16642;SDS011;8435;52.184;5.406;2023-08-24T11:01:33;7.55;;;6.20;;
16642;SDS011;8435;52.184;5.406;2023-08-24T11:04:05;7.18;;;6.55;;
16642;SDS011;8435;52.184;5.406;2023-08-24T11:06:33;7.35;;;6.65;;
16642;SDS011;8435;52.184;5.406;2023-08-24T11:09:06;8.38;;;7.50;;
16642;SDS011;8435;52.184;5.406;2023-08-24T11:11:39;7.90;;;7.20;;
16642;SDS011;8435;52.184;5.406;2023-08-24T11:14:12;7.32;;;6.63;;
16642;SDS011;8435;52.184;5.406;2023-08-24T11:16:40;7.75;;;7.05;;
16642;SDS011;8435;52.184;5.406;2023-08-24T11:19:09;7.35;;;6.55;;
16642;SDS011;8435;52.184;5.406;2023-08-24T11:21:37;8.25;;;7.45;;
16642;SDS011;8435;52.184;5.406;2023-08-24T11:24:05;7.57;;;6.90;;
16642;SDS011;8435;52.184;5.406;2023-08-24T11:26:38;8.02;;;6.95;;
16642;SDS011;8435;52.184;5.406;2023-08-24T11:29:06;8.90;;;8.02;;
16642;SDS011;8435;52.184;5.406;2023-08-24T11:31:33;9.45;;;8.45;;
16642;SDS011;8435;52.184;5.406;2023-08-24T11:34:01;9.20;;;8.30;;
16642;SDS011;8435;52.184;5.406;2023-08-24T11:36:30;9.27;;;8.45;;
16642;SDS011;8435;52.184;5.406;2023-08-24T11:38:58;8.90;;;8.10;;
16642;SDS011;8435;52.184;5.406;2023-08-24T11:41:26;8.25;;;7.45;;
16642;SDS011;8435;52.184;5.406;2023-08-24T11:43:59;9.60;;;8.80;;
16642;SDS011;8435;52.184;5.406;2023-08-24T11:46:29;9.57;;;8.68;;
16642;SDS011;8435;52.184;5.406;2023-08-24T11:48:59;10.05;;;9.00;;
16642;SDS011;8435;52.184;5.406;2023-08-24T11:51:26;9.68;;;8.73;;
16642;SDS011;8435;52.184;5.406;2023-08-24T11:53:55;9.45;;;8.52;;
16642;SDS011;8435;52.184;5.406;2023-08-24T11:56:23;9.23;;;8.43;;
16642;SDS011;8435;52.184;5.406;2023-08-24T11:58:50;9.00;;;8.20;;
16642;SDS011;8435;52.184;5.406;2023-08-24T12:01:19;8.85;;;8.15;;
16642;SDS011;8435;52.184;5.406;2023-08-24T12:03:45;8.68;;;7.95;;
16642;SDS011;8435;52.184;5.406;2023-08-24T12:06:13;9.27;;;8.38;;
16642;SDS011;8435;52.184;5.406;2023-08-24T12:08:41;9.80;;;8.32;;
16642;SDS011;8435;52.184;5.406;2023-08-24T12:11:15;8.07;;;7.43;;
16642;SDS011;8435;52.184;5.406;2023-08-24T12:13:43;8.70;;;8.00;;
16642;SDS011;8435;52.184;5.406;2023-08-24T12:16:12;9.00;;;8.20;;
16642;SDS011;8435;52.184;5.406;2023-08-24T12:18:46;8.23;;;7.63;;
16642;SDS011;8435;52.184;5.406;2023-08-24T12:21:14;8.60;;;7.65;;
16642;SDS011;8435;52.184;5.406;2023-08-24T12:23:41;7.57;;;6.70;;
16642;SDS011;8435;52.184;5.406;2023-08-24T12:26:08;8.60;;;7.88;;
16642;SDS011;8435;52.184;5.406;2023-08-24T12:28:48;8.90;;;8.10;;
16642;SDS011;8435;52.184;5.406;2023-08-24T12:31:18;10.55;;;8.65;;
16642;SDS011;8435;52.184;5.406;2023-08-24T12:33:45;8.63;;;7.72;;
16642;SDS011;8435;52.184;5.406;2023-08-24T12:36:24;9.45;;;8.60;;
16642;SDS011;8435;52.184;5.406;2023-08-24T12:38:51;9.35;;;8.45;;
16642;SDS011;8435;52.184;5.406;2023-08-24T12:41:18;9.27;;;7.53;;
16642;SDS011;8435;52.184;5.406;2023-08-24T12:43:46;8.68;;;7.88;;
16642;SDS011;8435;52.184;5.406;2023-08-24T12:46:13;9.45;;;8.57;;
16642;SDS011;8435;52.184;5.406;2023-08-24T12:48:40;10.05;;;9.02;;
16642;SDS011;8435;52.184;5.406;2023-08-24T12:51:06;9.52;;;8.63;;
16642;SDS011;8435;52.184;5.406;2023-08-24T12:53:36;9.25;;;8.55;;
16642;SDS011;8435;52.184;5.406;2023-08-24T12:56:03;9.15;;;8.35;;
16642;SDS011;8435;52.184;5.406;2023-08-24T12:58:30;10.88;;;9.15;;
16642;SDS011;8435;52.184;5.406;2023-08-24T13:00:59;8.20;;;7.45;;
16642;SDS011;8435;52.184;5.406;2023-08-24T13:03:26;9.48;;;8.35;;
16642;SDS011;8435;52.184;5.406;2023-08-24T13:05:53;8.93;;;8.02;;
16642;SDS011;8435;52.184;5.406;2023-08-24T13:08:22;9.18;;;8.38;;
16642;SDS011;8435;52.184;5.406;2023-08-24T13:10:50;9.45;;;8.63;;
16642;SDS011;8435;52.184;5.406;2023-08-24T13:13:17;11.45;;;9.68;;
16642;SDS011;8435;52.184;5.406;2023-08-24T13:15:46;10.18;;;9.18;;
16642;SDS011;8435;52.184;5.406;2023-08-24T13:18:17;9.65;;;8.85;;
16642;SDS011;8435;52.184;5.406;2023-08-24T13:20:44;7.85;;;7.22;;
16642;SDS011;8435;52.184;5.406;2023-08-24T13:23:11;8.95;;;8.10;;
16642;SDS011;8435;52.184;5.406;2023-08-24T13:25:38;9.30;;;8.40;;
16642;SDS011;8435;52.184;5.406;2023-08-24T13:28:06;8.68;;;7.97;;
16642;SDS011;8435;52.184;5.406;2023-08-24T13:30:33;8.27;;;7.47;;
16642;SDS011;8435;52.184;5.406;2023-08-24T13:33:00;13.52;;;9.02;;
16642;SDS011;8435;52.184;5.406;2023-08-24T13:35:28;8.50;;;7.72;;
16642;SDS011;8435;52.184;5.406;2023-08-24T13:37:55;8.32;;;7.63;;
16642;SDS011;8435;52.184;5.406;2023-08-24T13:40:24;8.25;;;7.57;;
16642;SDS011;8435;52.184;5.406;2023-08-24T13:42:51;9.35;;;8.45;;
16642;SDS011;8435;52.184;5.406;2023-08-24T13:45:17;8.90;;;8.20;;
16642;SDS011;8435;52.184;5.406;2023-08-24T13:47:50;9.85;;;8.93;;
16642;SDS011;8435;52.184;5.406;2023-08-24T13:50:19;8.88;;;8.07;;
16642;SDS011;8435;52.184;5.406;2023-08-24T13:52:47;10.68;;;9.57;;
16642;SDS011;8435;52.184;5.406;2023-08-24T13:55:15;11.27;;;10.18;;
16642;SDS011;8435;52.184;5.406;2023-08-24T13:57:42;10.45;;;9.57;;
16642;SDS011;8435;52.184;5.406;2023-08-24T14:00:09;10.48;;;9.48;;
16642;SDS011;8435;52.184;5.406;2023-08-24T14:02:36;10.20;;;9.20;;
16642;SDS011;8435;52.184;5.406;2023-08-24T14:05:07;10.18;;;9.27;;
16642;SDS011;8435;52.184;5.406;2023-08-24T14:07:34;11.73;;;10.35;;
16642;SDS011;8435;52.184;5.406;2023-08-24T14:10:03;12.15;;;10.43;;
16642;SDS011;8435;52.184;5.406;2023-08-24T14:12:31;10.90;;;10.00;;
16642;SDS011;8435;52.184;5.406;2023-08-24T14:14:58;10.88;;;9.25;;
16642;SDS011;8435;52.184;5.406;2023-08-24T14:17:25;10.85;;;10.00;;
16642;SDS011;8435;52.184;5.406;2023-08-24T14:19:52;11.77;;;10.82;;
16642;SDS011;8435;52.184;5.406;2023-08-24T14:22:18;12.68;;;11.57;;
16642;SDS011;8435;52.184;5.406;2023-08-24T14:24:45;12.48;;;11.35;;
16642;SDS011;8435;52.184;5.406;2023-08-24T14:27:13;12.93;;;11.82;;
16642;SDS011;8435;52.184;5.406;2023-08-24T14:29:40;13.90;;;12.60;;
16642;SDS011;8435;52.184;5.406;2023-08-24T14:32:07;14.00;;;12.07;;
16642;SDS011;8435;52.184;5.406;2023-08-24T14:34:34;12.13;;;10.93;;
16642;SDS011;8435;52.184;5.406;2023-08-24T14:37:01;13.07;;;12.13;;
16642;SDS011;8435;52.184;5.406;2023-08-24T14:39:30;14.80;;;13.40;;
16642;SDS011;8435;52.184;5.406;2023-08-24T14:41:57;12.25;;;11.20;;
16642;SDS011;8435;52.184;5.406;2023-08-24T14:44:29;14.25;;;12.95;;
16642;SDS011;8435;52.184;5.406;2023-08-24T14:46:56;12.15;;;11.10;;
16642;SDS011;8435;52.184;5.406;2023-08-24T14:49:22;13.68;;;12.27;;
16642;SDS011;8435;52.184;5.406;2023-08-24T14:51:49;14.15;;;12.98;;
16642;SDS011;8435;52.184;5.406;2023-08-24T14:54:16;14.45;;;13.05;;
16642;SDS011;8435;52.184;5.406;2023-08-24T14:56:45;13.10;;;11.85;;
16642;SDS011;8435;52.184;5.406;2023-08-24T14:59:12;12.73;;;11.55;;
16642;SDS011;8435;52.184;5.406;2023-08-24T15:01:40;13.25;;;12.05;;
16642;SDS011;8435;52.184;5.406;2023-08-24T15:04:07;13.93;;;12.68;;
16642;SDS011;8435;52.184;5.406;2023-08-24T15:06:36;13.30;;;12.00;;